Alamillo, New Mexico
Current Conditions -  °F | °C
As of 9:15 PM on Sunday 25 Jan 2015 (Local Time) from KONM Reporting Station
Clear Clear  
Wind Chill: 31°   Ceiling: Unl
Heat Index: 36°   Visibility: 10mi
Dew Point: 27°   Wind: 7mph
Humidity: 68%   Direction: 180°S
Pressure: 30.3"   Gusts: NA
Location:  34.262°N, 106.87°W
Report Text: KONM 260415Z AUTO 18006KT 10SM CLR 02/M03 A3030 RMK AO2 T00231030
Loading
Personal Weather Stations






























Interactive Weather Map New forecast layout! Learn more

10-Day Weather Forecast

Advertisements
Track Severe Weather on mobile